Mount Olivet, Kentucky
Current Conditions -  °F | °C
As of 12:35 PM on Monday 24 Nov 2014 (Local Time) from KFGX Reporting Station
Overcast Overcast  
Wind Chill: 56°   Ceiling: 4800
Heat Index: 56°   Visibility: 10mi
Dew Point: 47°   Wind: 31mph
Humidity: 70%   Direction: 240°WSW
Pressure: 29.56"   Gusts: 48mph
Location:  38.53°N, 84.04°W
Report Text: KFGX 241735Z AUTO 24027G42KT 10SM SCT032 BKN048 OVC055 14/08 A2956 RMK AO2 T01360082
Loading
Personal Weather Stations






























Interactive Weather Map New forecast layout! Learn more

10-Day Weather Forecast

Advertisements
Track Severe Weather on mobile